Time;durP1;ratioP1;P1;durP2;ratioP2;P2;SDS_P1;SDS_P2;PMS_P1;PMS_P2;Temp;Humidity;BMP_temperature;BMP_pressure;BME280_temperature;BME280_humidity;BME280_pressure;Samples;Min_cycle;Max_cycle;Signal;HPM_P1;HPM_P2
2024/01/23 00:01:26;;;;;;;8.27;3.53;;;;;;;;;;5024239;28;20178;-53
2024/01/23 00:03:52;;;;;;;11.23;4.00;;;;;;;;;;5029126;28;20181;-56
2024/01/23 00:06:18;;;;;;;11.17;3.87;;;;;;;;;;5010449;28;20685;-54
2024/01/23 00:08:44;;;;;;;12.27;3.40;;;;;;;;;;5009735;28;20507;-54
2024/01/23 00:11:10;;;;;;;8.20;3.80;;;;;;;;;;5010657;28;20253;-53
2024/01/23 00:13:36;;;;;;;9.60;3.47;;;;;;;;;;5027785;28;20627;-55
2024/01/23 00:16:02;;;;;;;8.60;3.17;;;;;;;;;;5030436;28;20617;-54
2024/01/23 00:18:28;;;;;;;12.87;3.27;;;;;;;;;;5029935;28;20199;-53
2024/01/23 00:20:54;;;;;;;7.57;3.50;;;;;;;;;;5022043;28;20623;-54
2024/01/23 00:23:20;;;;;;;16.13;4.07;;;;;;;;;;5014898;28;20277;-54
2024/01/23 00:25:47;;;;;;;9.37;3.20;;;;;;;;;;5010111;28;20275;-54
2024/01/23 00:28:13;;;;;;;8.30;3.23;;;;;;;;;;5010194;28;20637;-54
2024/01/23 00:30:40;;;;;;;11.50;3.13;;;;;;;;;;5016325;28;20174;-54
2024/01/23 00:33:06;;;;;;;8.83;3.13;;;;;;;;;;5010788;28;20174;-54
2024/01/23 00:35:32;;;;;;;11.57;3.73;;;;;;;;;;5009970;28;20198;-54
2024/01/23 00:37:58;;;;;;;13.47;3.50;;;;;;;;;;5011290;28;20217;-53
2024/01/23 00:40:24;;;;;;;8.77;2.70;;;;;;;;;;5009443;28;20573;-54
2024/01/23 00:42:51;;;;;;;9.67;3.13;;;;;;;;;;5014178;28;20716;-53
2024/01/23 00:45:17;;;;;;;10.50;4.47;;;;;;;;;;5008072;28;20206;-53
2024/01/23 00:47:43;;;;;;;8.27;3.03;;;;;;;;;;5009830;28;20577;-54
2024/01/23 00:50:09;;;;;;;6.90;2.80;;;;;;;;;;5025892;28;20239;-54
2024/01/23 00:52:35;;;;;;;8.80;3.10;;;;;;;;;;5012042;28;20185;-54
2024/01/23 00:55:03;;;;;;;15.10;3.37;;;;;;;;;;5019653;28;20174;-54
2024/01/23 00:57:29;;;;;;;6.53;2.90;;;;;;;;;;5029593;28;20182;-53
2024/01/23 00:59:56;;;;;;;9.73;3.00;;;;;;;;;;5026341;28;20205;-53
2024/01/23 01:02:22;;;;;;;9.17;3.33;;;;;;;;;;5028426;28;20186;-54
2024/01/23 01:04:48;;;;;;;8.13;3.00;;;;;;;;;;5028654;28;20174;-53
2024/01/23 01:07:14;;;;;;;10.27;2.90;;;;;;;;;;5023786;28;20206;-54
2024/01/23 01:09:40;;;;;;;8.67;3.00;;;;;;;;;;5029529;28;20679;-54
2024/01/23 01:12:06;;;;;;;8.10;2.80;;;;;;;;;;5014161;28;20587;-54
2024/01/23 01:14:34;;;;;;;7.67;2.90;;;;;;;;;;5009217;28;20170;-54
2024/01/23 01:17:00;;;;;;;6.87;2.60;;;;;;;;;;5017621;28;20884;-55
2024/01/23 01:19:26;;;;;;;8.23;3.50;;;;;;;;;;5028312;28;20645;-54
2024/01/23 01:21:52;;;;;;;7.57;2.50;;;;;;;;;;5023072;28;20194;-54
2024/01/23 01:24:18;;;;;;;7.77;3.03;;;;;;;;;;5008821;28;20238;-63
2024/01/23 01:26:44;;;;;;;8.90;2.50;;;;;;;;;;5009513;28;20638;-62
2024/01/23 01:29:10;;;;;;;9.40;3.07;;;;;;;;;;5013339;28;20209;-61
2024/01/23 01:31:36;;;;;;;10.93;2.80;;;;;;;;;;5012238;28;20166;-62
2024/01/23 01:34:02;;;;;;;7.40;2.53;;;;;;;;;;5028627;28;20181;-63
2024/01/23 01:36:29;;;;;;;6.90;3.23;;;;;;;;;;5028816;28;20189;-61
2024/01/23 01:38:56;;;;;;;9.87;3.00;;;;;;;;;;5028043;28;20180;-57
2024/01/23 01:41:22;;;;;;;8.07;2.40;;;;;;;;;;5009221;28;20182;-62
2024/01/23 01:43:48;;;;;;;10.37;2.90;;;;;;;;;;5018900;28;20213;-62
2024/01/23 01:46:24;;;;;;;12.77;3.30;;;;;;;;;;5001519;28;20253;-61
2024/01/23 01:48:50;;;;;;;6.30;2.77;;;;;;;;;;4989359;28;20269;-63
2024/01/23 01:51:18;;;;;;;11.33;3.03;;;;;;;;;;4989911;28;20518;-61
2024/01/23 01:53:44;;;;;;;8.07;2.83;;;;;;;;;;4994483;28;20968;-63
2024/01/23 01:56:10;;;;;;;7.83;2.53;;;;;;;;;;5001166;28;20707;-62
2024/01/23 01:58:36;;;;;;;11.67;3.30;;;;;;;;;;5000756;28;20643;-63
2024/01/23 02:01:03;;;;;;;12.27;2.93;;;;;;;;;;4989372;28;20290;-62
2024/01/23 02:03:29;;;;;;;8.77;2.70;;;;;;;;;;5001898;28;20223;-60
2024/01/23 02:05:57;;;;;;;6.93;3.30;;;;;;;;;;4992375;28;20266;-59
2024/01/23 02:08:23;;;;;;;9.00;2.30;;;;;;;;;;5006486;28;20249;-59
2024/01/23 02:10:49;;;;;;;10.80;3.27;;;;;;;;;;4989603;28;20207;-60
2024/01/23 02:13:15;;;;;;;11.33;3.80;;;;;;;;;;5005298;28;20178;-63
2024/01/23 02:15:41;;;;;;;11.60;2.93;;;;;;;;;;5005816;28;20170;-63
2024/01/23 02:18:07;;;;;;;9.93;3.80;;;;;;;;;;5007190;28;20175;-61
2024/01/23 02:20:33;;;;;;;8.70;3.97;;;;;;;;;;5002870;28;20521;-63
2024/01/23 02:22:59;;;;;;;9.87;3.13;;;;;;;;;;5001120;28;20194;-57
2024/01/23 02:25:25;;;;;;;8.80;2.50;;;;;;;;;;5007942;28;20179;-60
2024/01/23 02:27:54;;;;;;;7.47;2.53;;;;;;;;;;4999443;28;20528;-64
2024/01/23 02:30:20;;;;;;;4.40;2.60;;;;;;;;;;5008169;28;20163;-63
2024/01/23 02:32:47;;;;;;;10.90;3.17;;;;;;;;;;5008766;28;20538;-63
2024/01/23 02:35:13;;;;;;;7.03;2.90;;;;;;;;;;5011327;28;20716;-54
2024/01/23 02:37:39;;;;;;;10.47;2.63;;;;;;;;;;5005351;28;20201;-54
2024/01/23 02:40:06;;;;;;;6.40;2.57;;;;;;;;;;5010517;28;20233;-53
2024/01/23 02:42:32;;;;;;;5.73;2.37;;;;;;;;;;5009393;28;20277;-54
2024/01/23 02:44:58;;;;;;;9.50;2.60;;;;;;;;;;5011261;28;20261;-56
2024/01/23 02:47:25;;;;;;;10.77;3.13;;;;;;;;;;5029425;28;20319;-54
2024/01/23 02:49:51;;;;;;;6.07;2.37;;;;;;;;;;5031136;28;20238;-53
2024/01/23 02:52:17;;;;;;;5.47;2.40;;;;;;;;;;5028002;28;20297;-53
2024/01/23 02:54:44;;;;;;;5.87;2.20;;;;;;;;;;5013224;28;20277;-53
2024/01/23 02:57:12;;;;;;;6.43;3.03;;;;;;;;;;5031558;28;20232;-53
2024/01/23 02:59:38;;;;;;;8.80;2.80;;;;;;;;;;5016442;28;20202;-53
2024/01/23 03:02:04;;;;;;;9.70;2.50;;;;;;;;;;5011793;28;20225;-53
2024/01/23 03:04:30;;;;;;;4.13;1.80;;;;;;;;;;5011893;28;20218;-53
2024/01/23 03:06:56;;;;;;;7.03;2.47;;;;;;;;;;5022904;28;20205;-54
2024/01/23 03:09:22;;;;;;;8.20;2.37;;;;;;;;;;5030209;28;20245;-53
2024/01/23 03:11:48;;;;;;;6.53;2.40;;;;;;;;;;5020368;28;20201;-53
2024/01/23 03:14:14;;;;;;;11.43;3.23;;;;;;;;;;5011302;28;20467;-54
2024/01/23 03:16:40;;;;;;;8.83;2.80;;;;;;;;;;5020760;28;20260;-53
2024/01/23 03:19:06;;;;;;;6.57;2.70;;;;;;;;;;5030629;28;20170;-54
2024/01/23 03:21:32;;;;;;;9.00;2.53;;;;;;;;;;5019964;28;20197;-55
2024/01/23 03:23:58;;;;;;;4.83;2.13;;;;;;;;;;5018422;28;20171;-54
2024/01/23 03:26:25;;;;;;;7.43;2.43;;;;;;;;;;5011072;28;20565;-53
2024/01/23 03:28:51;;;;;;;5.10;2.60;;;;;;;;;;5018743;28;20216;-54
2024/01/23 03:31:17;;;;;;;7.93;2.63;;;;;;;;;;5029221;28;20177;-53
2024/01/23 03:33:43;;;;;;;9.03;2.33;;;;;;;;;;5013985;28;20179;-53
2024/01/23 03:36:09;;;;;;;11.50;3.27;;;;;;;;;;5011213;28;20619;-54
2024/01/23 03:38:35;;;;;;;8.27;2.77;;;;;;;;;;5010408;28;20627;-54
2024/01/23 03:41:01;;;;;;;7.73;2.20;;;;;;;;;;5010721;28;20183;-53
2024/01/23 03:43:27;;;;;;;7.93;2.23;;;;;;;;;;5015337;28;20350;-53
2024/01/23 03:45:53;;;;;;;6.20;2.57;;;;;;;;;;5019213;28;20292;-56
2024/01/23 03:48:19;;;;;;;8.70;3.37;;;;;;;;;;5012272;28;20420;-55
2024/01/23 03:50:45;;;;;;;7.70;2.80;;;;;;;;;;5030745;28;20341;-55
2024/01/23 03:53:11;;;;;;;7.70;2.50;;;;;;;;;;5025266;28;20181;-56
2024/01/23 03:55:37;;;;;;;7.63;2.50;;;;;;;;;;5018412;28;20600;-56
2024/01/23 03:58:03;;;;;;;7.57;2.90;;;;;;;;;;5029371;28;20205;-56
2024/01/23 04:00:30;;;;;;;8.30;2.13;;;;;;;;;;5013367;28;20266;-56
2024/01/23 04:02:56;;;;;;;4.07;2.13;;;;;;;;;;5029479;28;20186;-55
2024/01/23 04:05:22;;;;;;;8.67;2.30;;;;;;;;;;5029853;28;20520;-55
2024/01/23 04:07:48;;;;;;;8.73;3.20;;;;;;;;;;5028417;28;20206;-56
2024/01/23 04:10:15;;;;;;;8.53;2.87;;;;;;;;;;5029471;28;20165;-55
2024/01/23 04:12:41;;;;;;;8.10;2.53;;;;;;;;;;5024079;28;20186;-55
2024/01/23 04:15:08;;;;;;;10.40;2.67;;;;;;;;;;5029519;28;20162;-56
2024/01/23 04:17:34;;;;;;;9.97;2.40;;;;;;;;;;5030598;28;20559;-56
2024/01/23 04:20:00;;;;;;;9.73;2.47;;;;;;;;;;5019715;28;20221;-55
2024/01/23 04:22:26;;;;;;;9.97;2.20;;;;;;;;;;5010360;28;20254;-55
2024/01/23 04:24:52;;;;;;;7.30;2.23;;;;;;;;;;5016884;28;20182;-56
2024/01/23 04:27:19;;;;;;;7.77;2.80;;;;;;;;;;5025641;28;20631;-56
2024/01/23 04:29:45;;;;;;;6.73;2.73;;;;;;;;;;5028894;28;20630;-56
2024/01/23 04:32:11;;;;;;;9.23;3.50;;;;;;;;;;5011870;28;20177;-55
2024/01/23 04:34:37;;;;;;;5.00;2.40;;;;;;;;;;5029490;28;20174;-56
2024/01/23 04:37:03;;;;;;;8.07;3.27;;;;;;;;;;5019431;28;20210;-55
2024/01/23 04:39:29;;;;;;;9.93;3.00;;;;;;;;;;5009220;28;20254;-56
2024/01/23 04:41:55;;;;;;;4.40;2.57;;;;;;;;;;5025273;28;20240;-55
2024/01/23 04:44:21;;;;;;;9.70;2.83;;;;;;;;;;5010505;28;20178;-55
2024/01/23 04:46:47;;;;;;;11.37;2.87;;;;;;;;;;5009362;28;20248;-55
2024/01/23 04:49:13;;;;;;;6.67;3.13;;;;;;;;;;5009768;28;20169;-55
2024/01/23 04:51:39;;;;;;;10.47;2.27;;;;;;;;;;5010037;28;20269;-56
2024/01/23 04:54:05;;;;;;;8.03;3.07;;;;;;;;;;5018276;28;20637;-55
2024/01/23 04:56:31;;;;;;;6.17;2.20;;;;;;;;;;5028926;28;20173;-50
2024/01/23 04:58:57;;;;;;;8.83;2.87;;;;;;;;;;5029342;28;20186;-51
2024/01/23 05:01:23;;;;;;;8.57;2.43;;;;;;;;;;5016123;28;20585;-51
2024/01/23 05:03:49;;;;;;;8.27;3.20;;;;;;;;;;5012972;28;20171;-51
2024/01/23 05:06:15;;;;;;;8.27;2.57;;;;;;;;;;5010631;28;20209;-52
2024/01/23 05:08:41;;;;;;;5.40;2.70;;;;;;;;;;5011977;28;20685;-51
2024/01/23 05:11:08;;;;;;;6.30;2.43;;;;;;;;;;5021604;28;20174;-51
2024/01/23 05:13:34;;;;;;;8.40;2.97;;;;;;;;;;5020827;28;20663;-52
2024/01/23 05:16:00;;;;;;;10.67;3.00;;;;;;;;;;5009513;28;20592;-54
2024/01/23 05:18:26;;;;;;;5.77;2.43;;;;;;;;;;5014170;28;20181;-51
2024/01/23 05:20:52;;;;;;;5.43;2.13;;;;;;;;;;5018544;28;20245;-51
2024/01/23 05:23:18;;;;;;;7.50;2.63;;;;;;;;;;5019030;28;20255;-53
2024/01/23 05:25:44;;;;;;;7.83;2.60;;;;;;;;;;5023294;28;20559;-52
2024/01/23 05:28:10;;;;;;;7.47;2.83;;;;;;;;;;5019801;28;20212;-51
2024/01/23 05:30:36;;;;;;;13.47;3.03;;;;;;;;;;5025083;28;20170;-52
2024/01/23 05:33:02;;;;;;;8.23;2.90;;;;;;;;;;5029293;28;20170;-51
2024/01/23 05:35:28;;;;;;;12.17;2.67;;;;;;;;;;5028641;28;20169;-51
2024/01/23 05:37:54;;;;;;;8.33;2.77;;;;;;;;;;5028541;28;20566;-50
2024/01/23 05:40:20;;;;;;;11.33;2.90;;;;;;;;;;5028388;28;20273;-52
2024/01/23 05:42:46;;;;;;;10.30;2.50;;;;;;;;;;5024023;28;20592;-51
2024/01/23 05:45:13;;;;;;;15.33;2.80;;;;;;;;;;5020226;28;20181;-51
2024/01/23 05:47:39;;;;;;;7.00;2.20;;;;;;;;;;5028453;28;20312;-52
2024/01/23 05:50:05;;;;;;;6.20;2.07;;;;;;;;;;5028453;28;20260;-50
2024/01/23 05:52:31;;;;;;;8.60;2.87;;;;;;;;;;5025644;28;20186;-52
2024/01/23 05:54:59;;;;;;;7.63;2.37;;;;;;;;;;5011754;28;20185;-51
2024/01/23 05:57:26;;;;;;;11.23;3.20;;;;;;;;;;5028903;28;20174;-50
2024/01/23 05:59:52;;;;;;;7.47;2.97;;;;;;;;;;5028834;28;20191;-52
2024/01/23 06:02:18;;;;;;;9.93;2.77;;;;;;;;;;5010379;28;20200;-49
2024/01/23 06:04:44;;;;;;;8.77;2.93;;;;;;;;;;5008951;28;20564;-50
2024/01/23 06:07:10;;;;;;;6.97;2.80;;;;;;;;;;5024637;28;20197;-51
2024/01/23 06:09:36;;;;;;;12.60;3.53;;;;;;;;;;5013650;28;20178;-50
2024/01/23 06:12:02;;;;;;;11.77;3.13;;;;;;;;;;5012503;28;20163;-51
2024/01/23 06:14:28;;;;;;;12.57;2.90;;;;;;;;;;5013000;28;20509;-52
2024/01/23 06:16:54;;;;;;;10.43;4.37;;;;;;;;;;5012626;28;20167;-50
2024/01/23 06:19:20;;;;;;;11.57;3.07;;;;;;;;;;5024237;28;20186;-50
2024/01/23 06:21:46;;;;;;;8.77;3.17;;;;;;;;;;5031616;28;20227;-52
2024/01/23 06:24:12;;;;;;;7.43;3.47;;;;;;;;;;5017908;28;20182;-50
2024/01/23 06:26:38;;;;;;;9.73;3.33;;;;;;;;;;5012326;28;20682;-50
2024/01/23 06:29:04;;;;;;;10.37;3.50;;;;;;;;;;5011698;28;20206;-51
2024/01/23 06:31:31;;;;;;;12.73;3.47;;;;;;;;;;5018392;28;20280;-52
2024/01/23 06:33:57;;;;;;;10.80;3.47;;;;;;;;;;5012853;28;20206;-55
2024/01/23 06:36:23;;;;;;;6.60;3.50;;;;;;;;;;5023363;28;20613;-52
2024/01/23 06:38:49;;;;;;;11.60;3.27;;;;;;;;;;5011647;28;20278;-51
2024/01/23 06:41:15;;;;;;;9.63;4.37;;;;;;;;;;5011983;28;20286;-51
2024/01/23 06:43:41;;;;;;;11.40;4.20;;;;;;;;;;5021309;28;20198;-53
2024/01/23 06:46:07;;;;;;;11.57;3.70;;;;;;;;;;5024281;28;20591;-52
2024/01/23 06:48:34;;;;;;;15.03;3.97;;;;;;;;;;5030832;28;20190;-51
2024/01/23 06:51:00;;;;;;;9.63;3.90;;;;;;;;;;5027522;28;20809;-52
2024/01/23 06:53:26;;;;;;;8.07;3.03;;;;;;;;;;5023360;28;20178;-51
2024/01/23 06:55:51;;;;;;;6.80;3.20;;;;;;;;;;5026972;28;20178;-52
2024/01/23 06:58:17;;;;;;;6.57;2.90;;;;;;;;;;5015405;28;20528;-52
2024/01/23 07:00:43;;;;;;;6.87;3.43;;;;;;;;;;5011824;28;20217;-51
2024/01/23 07:03:10;;;;;;;6.13;3.63;;;;;;;;;;5012320;28;20290;-52
2024/01/23 07:05:36;;;;;;;7.90;2.80;;;;;;;;;;5031148;28;20324;-52
2024/01/23 07:08:06;;;;;;;8.37;2.87;;;;;;;;;;5012617;28;20210;-52
2024/01/23 07:10:32;;;;;;;7.23;2.67;;;;;;;;;;5025041;28;20193;-51
2024/01/23 07:12:58;;;;;;;9.97;2.90;;;;;;;;;;5029909;28;20304;-52
2024/01/23 07:15:24;;;;;;;9.77;3.37;;;;;;;;;;5025725;28;20559;-50
2024/01/23 07:17:51;;;;;;;8.20;3.60;;;;;;;;;;5010674;28;20183;-50
2024/01/23 07:20:18;;;;;;;8.30;3.03;;;;;;;;;;5011157;28;20166;-51
2024/01/23 07:22:44;;;;;;;7.30;2.53;;;;;;;;;;5011364;28;20360;-54
2024/01/23 07:25:10;;;;;;;10.17;2.70;;;;;;;;;;5019438;28;20348;-51
2024/01/23 07:27:36;;;;;;;6.07;2.60;;;;;;;;;;5022991;28;20202;-52
2024/01/23 07:30:02;;;;;;;8.23;3.10;;;;;;;;;;5013590;28;20185;-51
2024/01/23 07:32:28;;;;;;;8.93;3.10;;;;;;;;;;5022097;28;20177;-52
2024/01/23 07:34:54;;;;;;;6.10;2.63;;;;;;;;;;5025513;28;20801;-50
2024/01/23 07:37:20;;;;;;;9.03;3.03;;;;;;;;;;5022977;28;20206;-51
2024/01/23 07:39:49;;;;;;;9.00;2.77;;;;;;;;;;5015190;28;20641;-51
2024/01/23 07:42:15;;;;;;;8.53;2.60;;;;;;;;;;5011284;28;20325;-53
2024/01/23 07:44:42;;;;;;;5.87;2.13;;;;;;;;;;5015248;28;20793;-52
2024/01/23 07:47:08;;;;;;;9.17;2.87;;;;;;;;;;5024167;28;20280;-52
2024/01/23 07:49:35;;;;;;;4.73;2.23;;;;;;;;;;5017652;28;20614;-52
2024/01/23 07:52:01;;;;;;;9.27;3.10;;;;;;;;;;5021118;28;20316;-50
2024/01/23 07:54:27;;;;;;;6.70;2.77;;;;;;;;;;5011389;28;20209;-51
2024/01/23 07:56:53;;;;;;;7.90;2.70;;;;;;;;;;5021887;28;20634;-51
2024/01/23 07:59:19;;;;;;;12.67;2.63;;;;;;;;;;5016872;28;20562;-53
2024/01/23 08:01:45;;;;;;;7.50;2.33;;;;;;;;;;5019360;28;20278;-53
2024/01/23 08:04:11;;;;;;;9.17;3.67;;;;;;;;;;5025770;28;20166;-50
2024/01/23 08:06:37;;;;;;;6.70;1.93;;;;;;;;;;5029024;28;20167;-51
2024/01/23 08:09:04;;;;;;;8.13;3.27;;;;;;;;;;5021971;28;20209;-52
2024/01/23 08:11:31;;;;;;;5.13;2.67;;;;;;;;;;5015802;28;20171;-51
2024/01/23 08:13:57;;;;;;;9.53;3.50;;;;;;;;;;5010691;28;20244;-51
2024/01/23 08:16:25;;;;;;;11.23;3.50;;;;;;;;;;5010592;28;20637;-52
2024/01/23 08:18:51;;;;;;;9.17;2.63;;;;;;;;;;5013578;28;20627;-55
2024/01/23 08:21:17;;;;;;;10.00;3.23;;;;;;;;;;5015243;28;20838;-56
2024/01/23 08:23:44;;;;;;;13.13;3.37;;;;;;;;;;5019899;28;20186;-55
2024/01/23 08:26:10;;;;;;;6.87;2.23;;;;;;;;;;5029935;28;20216;-56
2024/01/23 08:28:36;;;;;;;6.73;2.37;;;;;;;;;;5029058;28;20283;-56
2024/01/23 08:31:03;;;;;;;5.57;2.57;;;;;;;;;;5012519;28;20233;-55
2024/01/23 08:33:30;;;;;;;9.77;2.63;;;;;;;;;;5029965;28;20174;-55
2024/01/23 08:35:57;;;;;;;6.63;2.43;;;;;;;;;;5031143;28;20590;-55
2024/01/23 08:38:23;;;;;;;4.87;2.07;;;;;;;;;;5028700;28;20231;-55
2024/01/23 08:40:49;;;;;;;6.33;2.20;;;;;;;;;;5031673;28;20583;-55
2024/01/23 08:43:15;;;;;;;7.37;2.57;;;;;;;;;;5023757;28;20637;-55
2024/01/23 08:45:41;;;;;;;7.40;2.80;;;;;;;;;;4998918;28;20283;-55
2024/01/23 08:48:08;;;;;;;8.53;2.50;;;;;;;;;;5037324;28;20197;-56
2024/01/23 08:50:34;;;;;;;8.53;2.63;;;;;;;;;;5017765;28;20177;-55
2024/01/23 08:53:00;;;;;;;6.23;2.50;;;;;;;;;;5028732;28;20166;-55
2024/01/23 08:55:26;;;;;;;11.43;2.77;;;;;;;;;;5032015;28;20571;-54
2024/01/23 08:57:52;;;;;;;9.63;3.23;;;;;;;;;;5018292;28;20525;-55
2024/01/23 09:00:19;;;;;;;8.97;2.97;;;;;;;;;;5009303;28;20244;-55
2024/01/23 09:02:45;;;;;;;6.53;2.33;;;;;;;;;;5009460;28;20170;-55
2024/01/23 09:05:11;;;;;;;8.40;3.10;;;;;;;;;;5021617;28;20162;-55
2024/01/23 09:07:37;;;;;;;12.07;2.70;;;;;;;;;;5029873;28;20194;-55
2024/01/23 09:10:03;;;;;;;9.00;3.10;;;;;;;;;;5028378;28;20656;-55
2024/01/23 09:12:33;;;;;;;10.60;2.70;;;;;;;;;;5010096;28;20348;-55
2024/01/23 09:14:59;;;;;;;8.27;3.00;;;;;;;;;;5009219;28;20228;-55
2024/01/23 09:17:25;;;;;;;4.80;2.17;;;;;;;;;;5032168;28;20189;-55
2024/01/23 09:19:52;;;;;;;12.00;3.30;;;;;;;;;;5029073;28;20177;-56
2024/01/23 09:22:18;;;;;;;4.97;2.90;;;;;;;;;;5029422;28;20246;-55
2024/01/23 09:24:44;;;;;;;10.53;2.70;;;;;;;;;;5027489;28;20288;-55
2024/01/23 09:27:10;;;;;;;5.30;2.90;;;;;;;;;;5028937;28;20266;-53
2024/01/23 09:29:37;;;;;;;6.40;2.53;;;;;;;;;;5010975;28;20515;-52
2024/01/23 09:32:03;;;;;;;7.47;2.50;;;;;;;;;;5028978;28;20166;-53
2024/01/23 09:34:29;;;;;;;10.60;2.67;;;;;;;;;;5020175;28;20167;-52
2024/01/23 09:36:55;;;;;;;10.70;2.80;;;;;;;;;;5009205;28;20197;-53
2024/01/23 09:39:21;;;;;;;7.67;2.83;;;;;;;;;;5008311;28;20178;-53
2024/01/23 09:41:51;;;;;;;10.77;2.77;;;;;;;;;;5014654;28;20241;-53
2024/01/23 09:44:22;;;;;;;5.50;2.60;;;;;;;;;;5021475;28;20178;-53
2024/01/23 09:46:52;;;;;;;11.33;3.00;;;;;;;;;;5048188;28;20224;-52
2024/01/23 09:49:18;;;;;;;7.67;2.80;;;;;;;;;;5038016;28;20621;-53
2024/01/23 09:51:48;;;;;;;9.00;2.93;;;;;;;;;;5035724;28;20331;-52
2024/01/23 09:54:14;;;;;;;;;;;;;;;;;;5034183;28;20628;-53
2024/01/23 09:56:41;;;;;;;8.03;2.83;;;;;;;;;;5035648;28;20408;-52
2024/01/23 09:59:09;;;;;;;3.70;2.33;;;;;;;;;;5034846;28;20247;-53
2024/01/23 10:01:35;;;;;;;;;;;;;;;;;;5035653;28;20256;-52
2024/01/23 10:04:01;;;;;;;;;;;;;;;;;;5034970;28;19999;-52
2024/01/23 10:06:27;;;;;;;;;;;;;;;;;;5035727;28;20028;-52
2024/01/23 10:08:53;;;;;;;;;;;;;;;;;;5033177;28;20011;-52
2024/01/23 10:11:19;;;;;;;;;;;;;;;;;;5016004;28;19936;-52
2024/01/23 10:13:45;;;;;;;;;;;;;;;;;;5016839;28;19951;-52
2024/01/23 10:16:10;;;;;;;;;;;;;;;;;;5035063;28;19960;-52
2024/01/23 10:18:36;;;;;;;;;;;;;;;;;;5035394;28;20395;-52
2024/01/23 10:21:03;;;;;;;;;;;;;;;;;;5034502;28;19964;-53
2024/01/23 10:23:28;;;;;;;;;;;;;;;;;;5021241;28;20003;-53
2024/01/23 10:25:54;;;;;;;;;;;;;;;;;;5024521;28;19913;-53
2024/01/23 10:28:20;;;;;;;;;;;;;;;;;;5023516;28;19917;-53
2024/01/23 10:30:46;;;;;;;;;;;;;;;;;;5027901;28;20082;-53
2024/01/23 10:33:12;;;;;;;;;;;;;;;;;;5026163;28;19956;-53
2024/01/23 10:35:38;;;;;;;11.90;3.00;;;;;;;;;;5022028;28;19958;-52
2024/01/23 10:38:07;;;;;;;4.40;2.65;;;;;;;;;;5027396;28;20193;-52
2024/01/23 10:40:33;;;;;;;6.60;2.50;;;;;;;;;;5019079;28;20190;-51
2024/01/23 10:43:00;;;;;;;6.27;2.93;;;;;;;;;;5023034;28;20709;-53
2024/01/23 10:45:26;;;;;;;10.70;3.37;;;;;;;;;;5025241;28;20163;-52
2024/01/23 10:47:53;;;;;;;12.40;3.43;;;;;;;;;;5022188;28;20190;-51
2024/01/23 10:50:22;;;;;;;5.97;2.53;;;;;;;;;;5028346;28;20581;-51
2024/01/23 10:52:49;;;;;;;7.60;3.10;;;;;;;;;;5020149;28;20165;-52
2024/01/23 10:55:16;;;;;;;11.13;3.43;;;;;;;;;;5022787;28;20711;-51
2024/01/23 10:57:46;;;;;;;9.97;3.10;;;;;;;;;;5022295;28;20179;-52
2024/01/23 11:00:14;;;;;;;7.87;3.03;;;;;;;;;;5022334;28;20173;-50
2024/01/23 11:02:40;;;;;;;9.00;3.80;;;;;;;;;;5021528;28;20725;-51
2024/01/23 11:05:06;;;;;;;9.47;2.90;;;;;;;;;;5023733;28;20167;-52
2024/01/23 11:07:38;;;;;;;9.47;3.10;;;;;;;;;;5018744;28;20283;-51
2024/01/23 11:10:07;;;;;;;7.00;3.03;;;;;;;;;;5020347;28;20249;-51
2024/01/23 11:12:38;;;;;;;7.47;2.93;;;;;;;;;;5022293;28;20688;-50
2024/01/23 11:15:10;;;;;;;8.27;2.90;;;;;;;;;;5021950;28;20675;-51
2024/01/23 11:17:36;;;;;;;10.23;3.50;;;;;;;;;;5022366;28;20273;-52
2024/01/23 11:20:07;;;;;;;8.77;3.47;;;;;;;;;;5014054;28;20294;-53
2024/01/23 11:22:33;;;;;;;7.73;3.73;;;;;;;;;;5026646;28;20198;-52
2024/01/23 11:24:59;;;;;;;8.20;3.37;;;;;;;;;;5022772;28;20208;-52
2024/01/23 11:27:26;;;;;;;8.33;3.47;;;;;;;;;;5026929;28;20201;-52
2024/01/23 11:29:53;;;;;;;10.47;3.23;;;;;;;;;;5020148;28;20188;-52
2024/01/23 11:32:20;;;;;;;11.90;3.33;;;;;;;;;;5024148;28;20325;-53
2024/01/23 11:34:46;;;;;;;7.67;4.00;;;;;;;;;;5027101;28;20170;-52
2024/01/23 11:37:31;;;;;;;12.37;3.60;;;;;;;;;;5021858;28;20170;-52
2024/01/23 11:39:59;;;;;;;11.07;3.03;;;;;;;;;;5020521;28;20214;-50
2024/01/23 11:42:35;;;;;;;10.80;2.80;;;;;;;;;;5019046;28;20218;-54
2024/01/23 11:45:21;;;;;;;10.23;2.90;;;;;;;;;;5020154;28;20178;-52
2024/01/23 11:47:47;;;;;;;8.70;3.03;;;;;;;;;;5034054;28;20977;-51
2024/01/23 11:50:13;;;;;;;6.20;2.87;;;;;;;;;;5016173;28;20260;-55
2024/01/23 11:52:41;;;;;;;10.87;3.63;;;;;;;;;;5017137;28;20233;-55
2024/01/23 11:55:07;;;;;;;9.93;3.50;;;;;;;;;;5018681;28;20790;-55
2024/01/23 11:57:34;;;;;;;7.27;3.00;;;;;;;;;;5018224;28;20280;-55
2024/01/23 12:00:01;;;;;;;7.80;3.20;;;;;;;;;;5016368;28;20629;-55
2024/01/23 12:02:28;;;;;;;9.53;2.63;;;;;;;;;;5017198;28;20223;-55
2024/01/23 12:04:53;;;;;;;9.63;3.50;;;;;;;;;;5019065;28;20179;-55
2024/01/23 12:07:20;;;;;;;9.00;3.77;;;;;;;;;;5013275;28;20200;-55
2024/01/23 12:09:46;;;;;;;8.43;2.43;;;;;;;;;;5023009;28;20641;-55
2024/01/23 12:12:12;;;;;;;6.80;3.20;;;;;;;;;;5019894;28;20189;-55
2024/01/23 12:14:38;;;;;;;8.30;3.17;;;;;;;;;;5015205;28;20622;-55
2024/01/23 12:17:04;;;;;;;8.53;2.93;;;;;;;;;;5013896;28;20241;-55
2024/01/23 12:19:43;;;;;;;11.93;3.60;;;;;;;;;;5019078;28;22233;-55
2024/01/23 12:22:09;;;;;;;7.77;2.93;;;;;;;;;;5019654;28;20190;-55
2024/01/23 12:24:35;;;;;;;9.33;2.87;;;;;;;;;;5019664;28;20255;-55
2024/01/23 12:27:01;;;;;;;9.00;3.40;;;;;;;;;;5025850;28;20177;-55
2024/01/23 12:29:28;;;;;;;6.77;3.07;;;;;;;;;;5012206;28;20205;-55
2024/01/23 12:31:56;;;;;;;6.87;3.50;;;;;;;;;;5024426;28;20178;-55
2024/01/23 12:34:22;;;;;;;10.20;2.90;;;;;;;;;;5020208;28;20191;-55
2024/01/23 12:36:51;;;;;;;8.63;3.03;;;;;;;;;;5018930;28;20558;-55
2024/01/23 12:39:18;;;;;;;9.10;2.83;;;;;;;;;;5017506;28;20557;-55
2024/01/23 12:41:44;;;;;;;12.23;3.40;;;;;;;;;;5017813;28;20272;-55
2024/01/23 12:44:11;;;;;;;12.80;3.50;;;;;;;;;;5023342;28;20190;-55
2024/01/23 12:46:37;;;;;;;6.10;2.10;;;;;;;;;;5001597;28;20283;-55
2024/01/23 12:49:04;;;;;;;8.47;2.80;;;;;;;;;;4998993;28;20283;-55
2024/01/23 12:51:30;;;;;;;9.03;3.17;;;;;;;;;;5003021;28;20266;-55
2024/01/23 12:53:57;;;;;;;10.17;3.70;;;;;;;;;;5000975;28;20253;-55
2024/01/23 12:56:23;;;;;;;6.50;2.70;;;;;;;;;;5002395;28;20195;-55
2024/01/23 12:58:51;;;;;;;10.73;3.53;;;;;;;;;;5002983;28;20305;-55
2024/01/23 13:01:18;;;;;;;7.63;2.63;;;;;;;;;;5008910;28;20180;-58
2024/01/23 13:03:44;;;;;;;7.27;2.60;;;;;;;;;;4998722;28;20197;-57
2024/01/23 13:06:10;;;;;;;8.17;3.60;;;;;;;;;;4995696;28;20187;-58
2024/01/23 13:08:36;;;;;;;9.87;2.80;;;;;;;;;;5004896;28;20203;-56
2024/01/23 13:11:02;;;;;;;7.87;2.70;;;;;;;;;;4999936;28;20202;-58
2024/01/23 13:13:28;;;;;;;7.57;2.67;;;;;;;;;;4995970;28;20583;-57
2024/01/23 13:15:54;;;;;;;12.53;3.50;;;;;;;;;;4996954;28;20259;-56
2024/01/23 13:18:21;;;;;;;7.00;2.87;;;;;;;;;;4997385;28;20946;-57
2024/01/23 13:20:47;;;;;;;14.50;3.20;;;;;;;;;;5000500;28;20175;-58
2024/01/23 13:23:13;;;;;;;12.37;3.87;;;;;;;;;;5000526;28;20193;-59
2024/01/23 13:25:44;;;;;;;10.67;3.57;;;;;;;;;;4996495;28;20523;-56
2024/01/23 13:28:10;;;;;;;9.00;3.07;;;;;;;;;;5007006;28;20213;-58
2024/01/23 13:30:36;;;;;;;8.00;3.20;;;;;;;;;;5008502;28;20194;-57
2024/01/23 13:33:03;;;;;;;9.23;2.70;;;;;;;;;;5007375;28;20205;-57
2024/01/23 13:35:29;;;;;;;4.50;2.10;;;;;;;;;;4995375;28;20175;-56
2024/01/23 13:37:55;;;;;;;7.93;3.70;;;;;;;;;;4993505;28;20198;-57
2024/01/23 13:40:21;;;;;;;8.37;3.37;;;;;;;;;;4998315;28;20554;-58
2024/01/23 13:42:47;;;;;;;14.63;3.30;;;;;;;;;;4989547;28;20282;-57
2024/01/23 13:45:14;;;;;;;8.17;3.43;;;;;;;;;;5001372;28;20819;-56
2024/01/23 13:47:44;;;;;;;11.80;3.67;;;;;;;;;;5018154;28;20256;-55
2024/01/23 13:50:10;;;;;;;13.50;3.77;;;;;;;;;;5020215;28;20276;-58
2024/01/23 13:52:37;;;;;;;13.07;3.13;;;;;;;;;;5015821;28;20189;-58
2024/01/23 13:55:06;;;;;;;7.97;3.53;;;;;;;;;;5017888;28;20174;-58
2024/01/23 13:57:32;;;;;;;9.13;3.13;;;;;;;;;;5023947;28;20670;-56
2024/01/23 13:59:59;;;;;;;9.20;3.30;;;;;;;;;;5022730;28;20170;-58
2024/01/23 14:02:25;;;;;;;10.70;3.90;;;;;;;;;;5016388;28;20185;-57
2024/01/23 14:04:51;;;;;;;10.73;3.60;;;;;;;;;;5019082;28;20235;-56
2024/01/23 14:07:17;;;;;;;11.17;3.67;;;;;;;;;;5010042;28;20190;-57
2024/01/23 14:09:43;;;;;;;14.13;3.07;;;;;;;;;;5022686;28;20715;-53
2024/01/23 14:12:11;;;;;;;15.30;3.80;;;;;;;;;;5019804;28;20392;-53
2024/01/23 14:14:37;;;;;;;10.00;3.47;;;;;;;;;;5015823;28;20638;-53
2024/01/23 14:17:04;;;;;;;7.30;3.03;;;;;;;;;;5019616;28;20205;-53
2024/01/23 14:19:30;;;;;;;12.23;3.10;;;;;;;;;;5008892;28;20516;-50
2024/01/23 14:21:56;;;;;;;10.97;3.10;;;;;;;;;;5013738;28;20288;-54
2024/01/23 14:24:22;;;;;;;10.73;3.40;;;;;;;;;;5014938;28;20554;-55
2024/01/23 14:26:48;;;;;;;9.10;3.20;;;;;;;;;;5019791;28;20227;-55
2024/01/23 14:29:14;;;;;;;9.37;3.53;;;;;;;;;;5021221;28;20213;-54
2024/01/23 14:31:41;;;;;;;11.97;3.10;;;;;;;;;;5018338;28;20553;-55
2024/01/23 14:34:07;;;;;;;10.63;3.00;;;;;;;;;;5022864;28;20232;-54
2024/01/23 14:36:33;;;;;;;10.73;3.63;;;;;;;;;;5018931;28;20217;-54
2024/01/23 14:38:59;;;;;;;8.10;3.00;;;;;;;;;;5013076;28;20598;-54